Time;durP1;ratioP1;P1;durP2;ratioP2;P2;SDS_P1;SDS_P2;PMS_P1;PMS_P2;Temp;Humidity;BMP_temperature;BMP_pressure;BME280_temperature;BME280_humidity;BME280_pressure;Samples;Min_cycle;Max_cycle;Signal;HPM_P1;HPM_P2
2023/10/13 00:01:13;;;;;;;13.20;8.30;;;;;;;14.01;79.51;100107.25;31221140;28;101880;-65
2023/10/13 00:16:17;;;;;;;21.15;9.95;;;;;;;13.98;79.87;100110.34;31219045;28;111931;-65
2023/10/13 00:31:17;;;;;;;18.50;9.73;;;;;;;13.94;79.67;100104.56;31217329;28;97161;-66
2023/10/13 00:46:19;;;;;;;18.98;9.32;;;;;;;13.94;80.03;100104.56;31215939;28;97102;-66
2023/10/13 01:01:29;;;;;;;19.33;11.07;;;;;;;13.95;80.03;100113.41;31215271;27;97351;-65
2023/10/13 01:16:30;;;;;;;13.53;8.57;;;;;;;13.93;80.46;100118.13;31214293;27;97150;-66
2023/10/13 01:31:37;;;;;;;15.90;8.20;;;;;;;13.90;80.32;100127.41;31211940;27;97139;-64
2023/10/13 01:46:42;;;;;;;20.57;10.27;;;;;;;13.78;80.16;100111.03;31210318;27;96905;-66
2023/10/13 02:01:44;;;;;;;17.23;9.20;;;;;;;13.52;80.68;100127.69;31209364;27;97451;-66
2023/10/13 02:16:47;;;;;;;14.77;9.32;;;;;;;13.54;80.78;100126.47;31226124;28;96763;-66
2023/10/13 02:31:54;;;;;;;16.43;9.53;;;;;;;13.57;81.31;100105.69;31230646;28;97221;-66
2023/10/13 02:46:57;;;;;;;14.77;7.97;;;;;;;13.41;81.19;100118.31;31228692;27;97492;-66
2023/10/13 03:01:58;;;;;;;14.90;8.77;;;;;;;13.37;81.59;100114.34;31225926;28;97182;-66
2023/10/13 03:17:05;;;;;;;15.88;8.15;;;;;;;13.23;81.74;100131.25;31222095;27;105777;-66
2023/10/13 03:32:11;;;;;;;19.73;9.03;;;;;;;13.31;81.97;100128.44;31221432;27;97070;-65
2023/10/13 03:47:26;;;;;;;16.70;10.43;;;;;;;13.36;81.66;100134.09;31218880;27;97165;-65
2023/10/13 04:02:27;;;;;;;14.77;7.83;;;;;;;13.32;81.99;100125.56;31217905;27;97489;-65
2023/10/13 04:17:28;;;;;;;16.90;8.77;;;;;;;13.34;82.41;100126.22;31215423;28;97169;-65
2023/10/13 04:32:29;;;;;;;21.30;12.27;;;;;;;13.37;82.06;100117.03;31215988;27;96710;-65
2023/10/13 04:47:41;;;;;;;23.92;15.23;;;;;;;13.47;82.24;100119.38;31211412;27;96904;-66
2023/10/13 05:03:17;;;;;;;19.37;11.93;;;;;;;13.52;82.61;100115.13;31209648;28;97319;-65
2023/10/13 06:34:44;;;;;;;17.90;10.27;;;;;;;14.60;81.82;100121.25;31198203;28;96975;-64
2023/10/13 06:49:45;;;;;;;14.03;9.90;;;;;;;15.48;82.10;100124.06;31200277;28;96867;-63
2023/10/13 07:04:46;;;;;;;17.53;10.23;;;;;;;16.66;81.64;100122.56;31222056;27;97067;-63
2023/10/13 07:19:53;;;;;;;13.20;8.67;;;;;;;18.32;79.31;100154.06;31220615;27;98260;-63
2023/10/13 07:34:57;;;;;;;16.20;10.97;;;;;;;19.19;75.93;100141.47;31218678;27;96825;-63
2023/10/13 07:49:57;;;;;;;15.57;9.63;;;;;;;20.37;73.97;100138.19;31213488;27;96881;-62
2023/10/13 08:04:57;;;;;;;12.23;9.52;;;;;;;21.26;70.31;100121.59;31213977;27;108658;-64
2023/10/13 08:19:58;;;;;;;12.40;8.70;;;;;;;25.81;64.84;100122.03;31213047;28;115018;-64
2023/10/13 08:50:47;;;;;;;8.77;6.07;;;;;;;33.59;39.55;100134.16;31178137;27;96873;-63
2023/10/13 09:06:06;;;;;;;8.40;6.13;;;;;;;35.00;32.34;100126.94;31211061;28;98201;-64
2023/10/13 09:36:26;;;;;;;6.90;4.17;;;;;;;30.44;32.64;100108.50;31207459;28;96868;-64
2023/10/13 09:51:26;;;;;;;5.80;4.00;;;;;;;27.09;37.58;100109.09;31206543;27;97296;-63
2023/10/13 10:06:29;;;;;;;6.97;4.20;;;;;;;27.19;39.67;100095.38;31205093;28;114902;-65
2023/10/13 10:21:37;;;;;;;4.73;3.83;;;;;;;27.97;38.33;100069.00;31202835;28;96702;-62
2023/10/13 10:36:42;;;;;;;4.73;3.00;;;;;;;38.07;27.14;100048.56;31217663;28;96859;-62
2023/10/13 10:51:45;;;;;;;3.47;2.30;;;;;;;40.70;20.50;100032.38;31222896;27;97171;-65
2023/10/13 11:06:55;;;;;;;4.27;2.70;;;;;;;39.75;21.28;100024.59;31223178;27;97277;-63
2023/10/13 11:21:56;;;;;;;6.20;3.40;;;;;;;30.41;31.12;99990.88;31219984;28;97409;-62
2023/10/13 11:36:58;;;;;;;7.90;3.08;;;;;;;30.93;32.81;99970.50;31216566;27;97280;-62
2023/10/13 11:52:10;;;;;;;6.33;3.50;;;;;;;26.37;38.04;99953.75;31216722;27;96722;-63
2023/10/13 12:07:20;;;;;;;4.27;2.40;;;;;;;27.97;38.67;99945.81;31213967;28;97938;-62
2023/10/13 12:22:35;;;;;;;4.57;1.97;;;;;;;26.35;40.40;99935.75;31214484;28;96761;-63
2023/10/13 12:52:36;;;;;;;6.32;3.60;;;;;;;22.08;50.03;99904.38;31209536;27;97550;-62
2023/10/13 13:07:44;;;;;;;6.18;2.92;;;;;;;21.27;52.52;99874.03;31207834;28;96763;-63
2023/10/13 13:22:45;;;;;;;4.20;2.30;;;;;;;20.77;54.88;99861.34;31207111;28;97235;-63
2023/10/13 13:37:45;;;;;;;5.63;2.20;;;;;;;20.48;56.74;99853.25;31207739;28;97292;-62
2023/10/13 13:52:46;;;;;;;2.97;2.17;;;;;;;20.63;57.87;99852.72;31205352;28;97064;-63
2023/10/13 14:07:49;;;;;;;6.53;2.40;;;;;;;20.78;58.15;99834.03;31226135;27;96760;-62
2023/10/13 14:22:52;;;;;;;6.53;2.50;;;;;;;20.63;58.87;99815.63;31246202;28;97312;-62
2023/10/13 14:37:53;;;;;;;6.47;2.33;;;;;;;20.48;60.13;99793.75;31245166;28;97184;-62
2023/10/13 14:52:53;;;;;;;8.10;2.70;;;;;;;20.29;60.55;99772.31;31244005;27;97177;-63
2023/10/13 15:07:55;;;;;;;8.63;3.20;;;;;;;20.10;61.46;99752.00;31241620;28;97582;-65
2023/10/13 15:22:59;;;;;;;10.33;4.90;;;;;;;19.83;62.33;99758.00;31227536;27;96741;-65
2023/10/13 15:38:01;;;;;;;8.80;4.63;;;;;;;19.59;63.44;99736.44;31220309;27;97043;-62
2023/10/13 15:53:02;;;;;;;9.80;4.27;;;;;;;19.28;64.63;99716.94;31217652;27;97504;-62
2023/10/13 16:08:03;;;;;;;6.30;4.15;;;;;;;19.00;65.73;99724.97;31196134;28;98257;-63
2023/10/13 16:23:05;;;;;;;10.80;5.43;;;;;;;18.52;67.14;99711.50;31213183;28;97509;-65
2023/10/13 16:38:08;;;;;;;10.37;5.97;;;;;;;18.08;68.65;99698.34;31209391;28;96701;-63
2023/10/13 16:53:09;;;;;;;25.20;12.97;;;;;;;17.74;69.88;99681.84;31212143;27;96764;-64
2023/10/13 17:08:10;;;;;;;15.10;9.17;;;;;;;17.55;70.82;99681.06;31211933;27;97565;-64
2023/10/13 17:23:11;;;;;;;16.77;9.35;;;;;;;17.48;71.20;99666.88;31210582;27;97196;-62
2023/10/13 17:38:11;;;;;;;14.60;6.38;;;;;;;17.44;71.27;99652.19;31208002;27;97228;-63
2023/10/13 17:53:12;;;;;;;9.70;5.00;;;;;;;17.28;71.41;99640.22;31205124;27;97087;-62
2023/10/13 18:08:12;;;;;;;15.27;5.32;;;;;;;17.14;71.59;99628.81;31184556;28;97450;-65
2023/10/13 18:23:13;;;;;;;17.65;5.60;;;;;;;17.27;71.91;99614.34;31205714;28;102829;-62
2023/10/13 18:38:14;;;;;;;12.20;4.77;;;;;;;17.55;71.10;99605.66;31202488;28;96813;-65
2023/10/13 18:53:14;;;;;;;9.88;4.28;;;;;;;17.67;70.60;99594.09;31214459;27;117364;-64
2023/10/13 19:08:17;;;;;;;8.32;3.90;;;;;;;17.79;70.06;99577.94;31225318;27;103561;-62
2023/10/13 19:23:19;;;;;;;8.97;4.13;;;;;;;17.89;69.49;99557.47;31222927;27;97125;-62
2023/10/13 19:38:20;;;;;;;14.40;4.70;;;;;;;18.16;68.54;99543.53;31219778;28;97553;-66
2023/10/13 19:53:20;;;;;;;12.25;4.55;;;;;;;18.55;66.90;99540.31;31216605;27;111204;-64
2023/10/13 20:08:23;;;;;;;11.00;3.75;;;;;;;18.41;65.78;99531.63;31214746;28;114950;-63
2023/10/13 20:23:25;;;;;;;9.10;3.30;;;;;;;18.34;65.18;99510.19;31215643;28;97175;-66
2023/10/13 20:38:25;;;;;;;9.60;3.40;;;;;;;18.34;64.82;99495.91;31216315;28;96933;-64
2023/10/13 20:53:26;;;;;;;8.68;3.47;;;;;;;18.33;64.23;99492.41;31214083;27;96781;-64
2023/10/13 21:08:27;;;;;;;8.88;3.75;;;;;;;18.18;63.89;99474.03;31213441;28;97262;-65
2023/10/13 21:23:27;;;;;;;8.52;4.03;;;;;;;18.63;62.90;99469.78;31211386;28;107751;-66
2023/10/13 21:38:27;;;;;;;6.13;2.75;;;;;;;19.48;58.73;99440.19;31210675;27;96739;-64
2023/10/13 21:53:28;;;;;;;10.23;3.45;;;;;;;19.83;55.64;99447.19;31211316;27;97159;-63
2023/10/13 22:08:29;;;;;;;8.30;2.83;;;;;;;19.75;54.08;99420.56;31209818;28;109813;-65
2023/10/13 22:23:29;;;;;;;7.83;2.77;;;;;;;19.44;54.09;99390.44;31210556;28;97088;-65
2023/10/13 22:38:30;;;;;;;8.57;3.70;;;;;;;19.05;54.00;99379.59;31228468;28;115389;-64
2023/10/13 22:53:30;;;;;;;7.10;2.65;;;;;;;19.35;53.79;99367.63;31227785;27;97463;-65
2023/10/13 23:08:35;;;;;;;11.10;3.25;;;;;;;19.77;51.86;99354.41;31226847;27;96701;-65
2023/10/13 23:23:37;;;;;;;8.03;2.57;;;;;;;19.75;51.00;99339.50;31225505;27;97538;-64
2023/10/13 23:38:38;;;;;;;7.47;3.10;;;;;;;19.47;50.89;99338.63;31222172;27;97807;-63
2023/10/13 23:53:45;;;;;;;8.97;3.00;;;;;;;19.08;51.38;99315.16;31221671;27;97598;-65
